sensor_id;sensor_type;location;lat;lon;timestamp;P1;durP1;ratioP1;P2;durP2;ratioP2
7021;SDS011;3552;42.664;23.406;2022-11-18T00:01:17;43.77;;;25.27;;
7021;SDS011;3552;42.664;23.406;2022-11-18T00:03:45;35.97;;;23.33;;
7021;SDS011;3552;42.664;23.406;2022-11-18T00:06:14;40.93;;;22.30;;
7021;SDS011;3552;42.664;23.406;2022-11-18T00:08:41;38.57;;;22.23;;
7021;SDS011;3552;42.664;23.406;2022-11-18T00:11:11;41.47;;;22.47;;
7021;SDS011;3552;42.664;23.406;2022-11-18T00:14:00;36.50;;;21.53;;
7021;SDS011;3552;42.664;23.406;2022-11-18T00:16:44;37.03;;;21.93;;
7021;SDS011;3552;42.664;23.406;2022-11-18T00:19:13;38.60;;;21.80;;
7021;SDS011;3552;42.664;23.406;2022-11-18T00:21:40;41.93;;;22.27;;
7021;SDS011;3552;42.664;23.406;2022-11-18T00:24:08;37.80;;;21.83;;
7021;SDS011;3552;42.664;23.406;2022-11-18T00:26:37;46.40;;;25.83;;
7021;SDS011;3552;42.664;23.406;2022-11-18T00:29:05;47.97;;;26.97;;
7021;SDS011;3552;42.664;23.406;2022-11-18T00:31:31;46.43;;;24.33;;
7021;SDS011;3552;42.664;23.406;2022-11-18T00:33:58;42.43;;;25.37;;
7021;SDS011;3552;42.664;23.406;2022-11-18T00:36:25;46.97;;;26.37;;
7021;SDS011;3552;42.664;23.406;2022-11-18T00:38:53;43.87;;;26.50;;
7021;SDS011;3552;42.664;23.406;2022-11-18T00:41:20;50.10;;;26.50;;
7021;SDS011;3552;42.664;23.406;2022-11-18T00:43:49;62.53;;;30.93;;
7021;SDS011;3552;42.664;23.406;2022-11-18T00:46:15;60.67;;;29.40;;
7021;SDS011;3552;42.664;23.406;2022-11-18T00:48:42;62.07;;;31.37;;
7021;SDS011;3552;42.664;23.406;2022-11-18T00:51:11;51.43;;;28.37;;
7021;SDS011;3552;42.664;23.406;2022-11-18T00:53:40;53.20;;;27.07;;
7021;SDS011;3552;42.664;23.406;2022-11-18T00:56:07;48.80;;;28.53;;
7021;SDS011;3552;42.664;23.406;2022-11-18T00:58:34;51.60;;;27.97;;
7021;SDS011;3552;42.664;23.406;2022-11-18T01:01:03;49.43;;;29.17;;
7021;SDS011;3552;42.664;23.406;2022-11-18T01:03:30;41.80;;;26.17;;
7021;SDS011;3552;42.664;23.406;2022-11-18T01:05:57;62.50;;;27.70;;
7021;SDS011;3552;42.664;23.406;2022-11-18T01:08:25;47.17;;;24.87;;
7021;SDS011;3552;42.664;23.406;2022-11-18T01:10:52;54.00;;;24.83;;
7021;SDS011;3552;42.664;23.406;2022-11-18T01:13:19;45.13;;;24.00;;
7021;SDS011;3552;42.664;23.406;2022-11-18T01:15:48;44.27;;;23.50;;
7021;SDS011;3552;42.664;23.406;2022-11-18T01:18:18;57.57;;;26.27;;
7021;SDS011;3552;42.664;23.406;2022-11-18T01:20:47;82.70;;;25.80;;
7021;SDS011;3552;42.664;23.406;2022-11-18T01:23:15;64.50;;;27.30;;
7021;SDS011;3552;42.664;23.406;2022-11-18T01:25:44;106.67;;;30.07;;
7021;SDS011;3552;42.664;23.406;2022-11-18T01:28:13;91.37;;;25.83;;
7021;SDS011;3552;42.664;23.406;2022-11-18T01:30:40;115.50;;;26.73;;
7021;SDS011;3552;42.664;23.406;2022-11-18T01:33:07;166.93;;;28.40;;
7021;SDS011;3552;42.664;23.406;2022-11-18T01:35:36;156.90;;;27.77;;
7021;SDS011;3552;42.664;23.406;2022-11-18T01:38:04;175.60;;;30.00;;
7021;SDS011;3552;42.664;23.406;2022-11-18T01:40:32;202.03;;;31.97;;
7021;SDS011;3552;42.664;23.406;2022-11-18T01:42:59;176.40;;;34.10;;
7021;SDS011;3552;42.664;23.406;2022-11-18T01:45:27;204.60;;;34.30;;
7021;SDS011;3552;42.664;23.406;2022-11-18T01:48:00;198.33;;;30.93;;
7021;SDS011;3552;42.664;23.406;2022-11-18T01:50:30;177.53;;;32.87;;
7021;SDS011;3552;42.664;23.406;2022-11-18T01:53:01;147.53;;;30.50;;
7021;SDS011;3552;42.664;23.406;2022-11-18T01:55:34;141.10;;;30.37;;
7021;SDS011;3552;42.664;23.406;2022-11-18T01:58:05;157.53;;;31.97;;
7021;SDS011;3552;42.664;23.406;2022-11-18T02:00:35;125.50;;;31.17;;
7021;SDS011;3552;42.664;23.406;2022-11-18T02:03:02;193.20;;;34.03;;
7021;SDS011;3552;42.664;23.406;2022-11-18T02:05:29;125.10;;;33.37;;
7021;SDS011;3552;42.664;23.406;2022-11-18T02:08:00;97.43;;;33.17;;
7021;SDS011;3552;42.664;23.406;2022-11-18T02:10:28;132.73;;;33.00;;
7021;SDS011;3552;42.664;23.406;2022-11-18T02:12:55;99.30;;;32.57;;
7021;SDS011;3552;42.664;23.406;2022-11-18T02:15:25;128.77;;;31.60;;
7021;SDS011;3552;42.664;23.406;2022-11-18T02:18:03;114.67;;;30.37;;
7021;SDS011;3552;42.664;23.406;2022-11-18T02:20:38;165.33;;;35.53;;
7021;SDS011;3552;42.664;23.406;2022-11-18T02:26:30;338.73;;;47.83;;
7021;SDS011;3552;42.664;23.406;2022-11-18T02:29:25;220.43;;;40.50;;
7021;SDS011;3552;42.664;23.406;2022-11-18T02:32:01;226.90;;;41.57;;
7021;SDS011;3552;42.664;23.406;2022-11-18T02:34:37;194.47;;;42.13;;
7021;SDS011;3552;42.664;23.406;2022-11-18T02:37:11;365.57;;;55.67;;
7021;SDS011;3552;42.664;23.406;2022-11-18T02:39:44;304.17;;;50.13;;
7021;SDS011;3552;42.664;23.406;2022-11-18T02:42:17;311.43;;;51.40;;
7021;SDS011;3552;42.664;23.406;2022-11-18T02:44:49;242.47;;;47.07;;
7021;SDS011;3552;42.664;23.406;2022-11-18T02:47:19;247.87;;;50.60;;
7021;SDS011;3552;42.664;23.406;2022-11-18T02:49:50;288.40;;;49.60;;
7021;SDS011;3552;42.664;23.406;2022-11-18T02:52:20;191.60;;;47.50;;
7021;SDS011;3552;42.664;23.406;2022-11-18T02:54:49;194.57;;;44.57;;
7021;SDS011;3552;42.664;23.406;2022-11-18T02:57:18;118.33;;;43.37;;
7021;SDS011;3552;42.664;23.406;2022-11-18T02:59:48;158.60;;;45.33;;
7021;SDS011;3552;42.664;23.406;2022-11-18T03:02:15;126.07;;;43.37;;
7021;SDS011;3552;42.664;23.406;2022-11-18T03:04:44;104.23;;;36.17;;
7021;SDS011;3552;42.664;23.406;2022-11-18T03:07:14;158.33;;;32.43;;
7021;SDS011;3552;42.664;23.406;2022-11-18T03:09:45;103.60;;;30.17;;
7021;SDS011;3552;42.664;23.406;2022-11-18T03:12:16;106.87;;;28.77;;
7021;SDS011;3552;42.664;23.406;2022-11-18T03:14:55;225.03;;;31.10;;
7021;SDS011;3552;42.664;23.406;2022-11-18T03:17:31;171.37;;;32.23;;
7021;SDS011;3552;42.664;23.406;2022-11-18T03:20:09;97.70;;;27.53;;
7021;SDS011;3552;42.664;23.406;2022-11-18T03:22:41;115.40;;;30.33;;
7021;SDS011;3552;42.664;23.406;2022-11-18T03:25:16;104.77;;;27.63;;
7021;SDS011;3552;42.664;23.406;2022-11-18T03:27:48;187.30;;;32.30;;
7021;SDS011;3552;42.664;23.406;2022-11-18T03:30:21;116.50;;;31.53;;
7021;SDS011;3552;42.664;23.406;2022-11-18T03:32:50;138.40;;;32.73;;
7021;SDS011;3552;42.664;23.406;2022-11-18T03:35:23;111.50;;;31.13;;
7021;SDS011;3552;42.664;23.406;2022-11-18T03:37:53;160.67;;;32.37;;
7021;SDS011;3552;42.664;23.406;2022-11-18T03:40:25;162.03;;;31.90;;
7021;SDS011;3552;42.664;23.406;2022-11-18T03:42:55;194.10;;;35.37;;
7021;SDS011;3552;42.664;23.406;2022-11-18T03:45:27;176.90;;;37.47;;
7021;SDS011;3552;42.664;23.406;2022-11-18T03:47:59;100.90;;;31.00;;
7021;SDS011;3552;42.664;23.406;2022-11-18T03:50:32;132.03;;;32.57;;
7021;SDS011;3552;42.664;23.406;2022-11-18T03:53:03;172.40;;;35.20;;
7021;SDS011;3552;42.664;23.406;2022-11-18T03:55:33;147.00;;;36.17;;
7021;SDS011;3552;42.664;23.406;2022-11-18T03:58:04;165.47;;;36.20;;
7021;SDS011;3552;42.664;23.406;2022-11-18T04:00:35;133.53;;;30.63;;
7021;SDS011;3552;42.664;23.406;2022-11-18T04:03:06;119.23;;;32.03;;
7021;SDS011;3552;42.664;23.406;2022-11-18T04:05:34;129.83;;;27.70;;
7021;SDS011;3552;42.664;23.406;2022-11-18T04:08:05;276.30;;;32.37;;
7021;SDS011;3552;42.664;23.406;2022-11-18T04:10:36;102.70;;;25.30;;
7021;SDS011;3552;42.664;23.406;2022-11-18T04:13:07;272.93;;;29.80;;
7021;SDS011;3552;42.664;23.406;2022-11-18T04:15:40;103.87;;;28.07;;
7021;SDS011;3552;42.664;23.406;2022-11-18T04:18:08;159.20;;;26.73;;
7021;SDS011;3552;42.664;23.406;2022-11-18T04:20:35;238.97;;;26.80;;
7021;SDS011;3552;42.664;23.406;2022-11-18T04:23:03;189.43;;;22.00;;
7021;SDS011;3552;42.664;23.406;2022-11-18T04:25:31;109.17;;;23.03;;
7021;SDS011;3552;42.664;23.406;2022-11-18T04:28:00;107.90;;;18.47;;
7021;SDS011;3552;42.664;23.406;2022-11-18T04:30:27;125.20;;;20.77;;
7021;SDS011;3552;42.664;23.406;2022-11-18T04:32:56;209.27;;;26.67;;
7021;SDS011;3552;42.664;23.406;2022-11-18T04:35:23;122.50;;;16.97;;
7021;SDS011;3552;42.664;23.406;2022-11-18T04:37:50;270.37;;;26.77;;
7021;SDS011;3552;42.664;23.406;2022-11-18T04:40:17;96.50;;;19.40;;
7021;SDS011;3552;42.664;23.406;2022-11-18T04:42:45;135.67;;;19.70;;
7021;SDS011;3552;42.664;23.406;2022-11-18T04:45:13;251.67;;;25.17;;
7021;SDS011;3552;42.664;23.406;2022-11-18T04:47:42;150.20;;;22.63;;
7021;SDS011;3552;42.664;23.406;2022-11-18T04:50:10;146.80;;;21.87;;
7021;SDS011;3552;42.664;23.406;2022-11-18T04:52:37;106.77;;;20.13;;
7021;SDS011;3552;42.664;23.406;2022-11-18T04:55:04;72.83;;;14.90;;
7021;SDS011;3552;42.664;23.406;2022-11-18T04:57:32;177.67;;;21.07;;
7021;SDS011;3552;42.664;23.406;2022-11-18T04:59:59;201.57;;;21.77;;
7021;SDS011;3552;42.664;23.406;2022-11-18T05:02:25;237.07;;;20.07;;
7021;SDS011;3552;42.664;23.406;2022-11-18T05:04:53;236.40;;;18.80;;
7021;SDS011;3552;42.664;23.406;2022-11-18T05:07:21;205.73;;;19.70;;
7021;SDS011;3552;42.664;23.406;2022-11-18T05:09:48;236.23;;;19.73;;
7021;SDS011;3552;42.664;23.406;2022-11-18T05:12:15;168.30;;;18.90;;
7021;SDS011;3552;42.664;23.406;2022-11-18T05:15:00;192.07;;;17.67;;
7021;SDS011;3552;42.664;23.406;2022-11-18T05:17:27;168.77;;;16.93;;
7021;SDS011;3552;42.664;23.406;2022-11-18T05:19:54;176.90;;;19.13;;
7021;SDS011;3552;42.664;23.406;2022-11-18T05:22:23;146.80;;;20.77;;
7021;SDS011;3552;42.664;23.406;2022-11-18T05:24:50;305.63;;;24.43;;
7021;SDS011;3552;42.664;23.406;2022-11-18T05:27:17;336.77;;;22.27;;
7021;SDS011;3552;42.664;23.406;2022-11-18T05:29:44;142.70;;;21.03;;
7021;SDS011;3552;42.664;23.406;2022-11-18T05:32:11;137.10;;;17.47;;
7021;SDS011;3552;42.664;23.406;2022-11-18T05:34:38;135.10;;;18.70;;
7021;SDS011;3552;42.664;23.406;2022-11-18T05:37:05;77.90;;;18.60;;
7021;SDS011;3552;42.664;23.406;2022-11-18T05:39:34;98.70;;;21.27;;
7021;SDS011;3552;42.664;23.406;2022-11-18T05:42:00;90.40;;;16.27;;
7021;SDS011;3552;42.664;23.406;2022-11-18T05:44:45;78.53;;;15.73;;
7021;SDS011;3552;42.664;23.406;2022-11-18T05:47:12;102.17;;;17.67;;
7021;SDS011;3552;42.664;23.406;2022-11-18T05:49:39;117.27;;;17.50;;
7021;SDS011;3552;42.664;23.406;2022-11-18T05:52:07;213.43;;;20.53;;
7021;SDS011;3552;42.664;23.406;2022-11-18T05:54:35;104.23;;;17.27;;
7021;SDS011;3552;42.664;23.406;2022-11-18T05:57:04;182.63;;;20.70;;
7021;SDS011;3552;42.664;23.406;2022-11-18T05:59:30;97.60;;;18.17;;
7021;SDS011;3552;42.664;23.406;2022-11-18T06:01:58;127.43;;;16.97;;
7021;SDS011;3552;42.664;23.406;2022-11-18T06:04:29;128.37;;;19.00;;
7021;SDS011;3552;42.664;23.406;2022-11-18T06:07:02;85.80;;;20.63;;
7021;SDS011;3552;42.664;23.406;2022-11-18T06:09:35;108.13;;;23.80;;
7021;SDS011;3552;42.664;23.406;2022-11-18T06:12:06;132.67;;;26.90;;
7021;SDS011;3552;42.664;23.406;2022-11-18T06:14:35;161.80;;;29.40;;
7021;SDS011;3552;42.664;23.406;2022-11-18T06:17:07;146.80;;;28.37;;
7021;SDS011;3552;42.664;23.406;2022-11-18T06:19:40;194.40;;;30.10;;
7021;SDS011;3552;42.664;23.406;2022-11-18T06:22:08;157.90;;;29.13;;
7021;SDS011;3552;42.664;23.406;2022-11-18T06:24:37;161.23;;;30.63;;
7021;SDS011;3552;42.664;23.406;2022-11-18T06:27:04;198.27;;;33.17;;
7021;SDS011;3552;42.664;23.406;2022-11-18T06:29:31;147.27;;;34.27;;
7021;SDS011;3552;42.664;23.406;2022-11-18T06:31:59;134.37;;;31.60;;
7021;SDS011;3552;42.664;23.406;2022-11-18T06:34:26;125.97;;;29.37;;
7021;SDS011;3552;42.664;23.406;2022-11-18T06:36:53;88.17;;;20.30;;
7021;SDS011;3552;42.664;23.406;2022-11-18T06:39:19;139.70;;;20.73;;
7021;SDS011;3552;42.664;23.406;2022-11-18T06:41:48;80.17;;;18.30;;
7021;SDS011;3552;42.664;23.406;2022-11-18T06:44:17;83.40;;;18.57;;
7021;SDS011;3552;42.664;23.406;2022-11-18T06:46:43;142.53;;;20.97;;
7021;SDS011;3552;42.664;23.406;2022-11-18T06:49:25;166.63;;;20.23;;
7021;SDS011;3552;42.664;23.406;2022-11-18T06:51:54;148.70;;;20.43;;
7021;SDS011;3552;42.664;23.406;2022-11-18T06:54:21;170.97;;;26.83;;
7021;SDS011;3552;42.664;23.406;2022-11-18T06:56:50;167.80;;;26.00;;
7021;SDS011;3552;42.664;23.406;2022-11-18T06:59:17;196.47;;;25.43;;
7021;SDS011;3552;42.664;23.406;2022-11-18T07:01:47;225.27;;;21.90;;
7021;SDS011;3552;42.664;23.406;2022-11-18T07:04:17;275.43;;;24.40;;
7021;SDS011;3552;42.664;23.406;2022-11-18T07:06:45;174.83;;;22.63;;
7021;SDS011;3552;42.664;23.406;2022-11-18T07:09:12;148.17;;;27.23;;
7021;SDS011;3552;42.664;23.406;2022-11-18T07:11:39;146.70;;;25.03;;
7021;SDS011;3552;42.664;23.406;2022-11-18T07:14:07;200.00;;;25.60;;
7021;SDS011;3552;42.664;23.406;2022-11-18T07:16:36;190.13;;;23.23;;
7021;SDS011;3552;42.664;23.406;2022-11-18T07:19:06;184.67;;;21.43;;
7021;SDS011;3552;42.664;23.406;2022-11-18T07:21:37;218.53;;;24.23;;
7021;SDS011;3552;42.664;23.406;2022-11-18T07:24:05;97.33;;;22.33;;
7021;SDS011;3552;42.664;23.406;2022-11-18T07:26:33;109.73;;;22.67;;
7021;SDS011;3552;42.664;23.406;2022-11-18T07:29:00;148.60;;;25.73;;
7021;SDS011;3552;42.664;23.406;2022-11-18T07:31:29;179.00;;;28.90;;
7021;SDS011;3552;42.664;23.406;2022-11-18T07:33:56;92.70;;;25.50;;
7021;SDS011;3552;42.664;23.406;2022-11-18T07:36:24;185.63;;;30.93;;
7021;SDS011;3552;42.664;23.406;2022-11-18T07:38:53;91.63;;;26.60;;
7021;SDS011;3552;42.664;23.406;2022-11-18T07:41:21;123.83;;;23.53;;
7021;SDS011;3552;42.664;23.406;2022-11-18T07:43:50;113.30;;;26.23;;
7021;SDS011;3552;42.664;23.406;2022-11-18T07:46:20;88.00;;;23.63;;
7021;SDS011;3552;42.664;23.406;2022-11-18T07:48:52;103.40;;;22.17;;
7021;SDS011;3552;42.664;23.406;2022-11-18T07:51:20;74.67;;;19.87;;
7021;SDS011;3552;42.664;23.406;2022-11-18T07:53:48;121.27;;;22.73;;
7021;SDS011;3552;42.664;23.406;2022-11-18T07:56:16;121.63;;;21.13;;
7021;SDS011;3552;42.664;23.406;2022-11-18T07:58:43;82.40;;;21.03;;
7021;SDS011;3552;42.664;23.406;2022-11-18T08:01:12;72.33;;;20.57;;
7021;SDS011;3552;42.664;23.406;2022-11-18T08:03:40;53.63;;;18.37;;
7021;SDS011;3552;42.664;23.406;2022-11-18T08:06:11;85.00;;;19.03;;
7021;SDS011;3552;42.664;23.406;2022-11-18T08:08:41;105.07;;;20.40;;
7021;SDS011;3552;42.664;23.406;2022-11-18T08:11:09;62.47;;;22.27;;
7021;SDS011;3552;42.664;23.406;2022-11-18T08:13:37;75.93;;;20.77;;
7021;SDS011;3552;42.664;23.406;2022-11-18T08:16:05;57.97;;;21.70;;
7021;SDS011;3552;42.664;23.406;2022-11-18T08:18:38;79.90;;;23.10;;
7021;SDS011;3552;42.664;23.406;2022-11-18T08:21:05;64.10;;;23.97;;
7021;SDS011;3552;42.664;23.406;2022-11-18T08:23:34;62.10;;;24.80;;
7021;SDS011;3552;42.664;23.406;2022-11-18T08:26:01;61.90;;;23.07;;
7021;SDS011;3552;42.664;23.406;2022-11-18T08:28:30;49.47;;;21.27;;
7021;SDS011;3552;42.664;23.406;2022-11-18T08:30:57;60.50;;;21.50;;
7021;SDS011;3552;42.664;23.406;2022-11-18T08:33:26;60.73;;;23.10;;
7021;SDS011;3552;42.664;23.406;2022-11-18T08:35:53;62.50;;;22.33;;
7021;SDS011;3552;42.664;23.406;2022-11-18T08:38:21;50.33;;;21.33;;
7021;SDS011;3552;42.664;23.406;2022-11-18T08:40:51;52.53;;;22.20;;
7021;SDS011;3552;42.664;23.406;2022-11-18T08:43:19;50.77;;;22.67;;
7021;SDS011;3552;42.664;23.406;2022-11-18T08:45:46;50.93;;;22.80;;
7021;SDS011;3552;42.664;23.406;2022-11-18T08:48:13;57.70;;;24.33;;
7021;SDS011;3552;42.664;23.406;2022-11-18T08:50:40;62.33;;;25.10;;
7021;SDS011;3552;42.664;23.406;2022-11-18T08:53:07;57.73;;;24.53;;
7021;SDS011;3552;42.664;23.406;2022-11-18T08:55:34;57.00;;;25.77;;
7021;SDS011;3552;42.664;23.406;2022-11-18T08:58:02;61.70;;;27.30;;
7021;SDS011;3552;42.664;23.406;2022-11-18T09:00:29;56.70;;;26.73;;
7021;SDS011;3552;42.664;23.406;2022-11-18T09:02:56;54.80;;;26.67;;
7021;SDS011;3552;42.664;23.406;2022-11-18T09:05:23;59.73;;;27.60;;
7021;SDS011;3552;42.664;23.406;2022-11-18T09:07:51;64.03;;;28.77;;
7021;SDS011;3552;42.664;23.406;2022-11-18T09:10:18;66.70;;;27.77;;
7021;SDS011;3552;42.664;23.406;2022-11-18T09:12:45;69.10;;;31.33;;
7021;SDS011;3552;42.664;23.406;2022-11-18T09:15:15;68.87;;;33.47;;
7021;SDS011;3552;42.664;23.406;2022-11-18T09:17:43;73.47;;;34.57;;
7021;SDS011;3552;42.664;23.406;2022-11-18T09:20:10;94.70;;;47.60;;
7021;SDS011;3552;42.664;23.406;2022-11-18T09:22:37;70.83;;;34.53;;
7021;SDS011;3552;42.664;23.406;2022-11-18T09:25:05;62.30;;;32.10;;
7021;SDS011;3552;42.664;23.406;2022-11-18T09:27:33;55.00;;;28.57;;
7021;SDS011;3552;42.664;23.406;2022-11-18T09:30:00;54.60;;;27.43;;
7021;SDS011;3552;42.664;23.406;2022-11-18T09:32:28;53.83;;;26.93;;
7021;SDS011;3552;42.664;23.406;2022-11-18T09:34:56;62.80;;;29.40;;
7021;SDS011;3552;42.664;23.406;2022-11-18T09:37:23;53.40;;;26.53;;
7021;SDS011;3552;42.664;23.406;2022-11-18T09:39:50;61.27;;;28.30;;
7021;SDS011;3552;42.664;23.406;2022-11-18T09:42:21;65.57;;;28.00;;
7021;SDS011;3552;42.664;23.406;2022-11-18T09:45:04;68.50;;;31.13;;
7021;SDS011;3552;42.664;23.406;2022-11-18T09:47:39;73.83;;;32.33;;
7021;SDS011;3552;42.664;23.406;2022-11-18T09:50:09;63.77;;;30.03;;
7021;SDS011;3552;42.664;23.406;2022-11-18T09:52:39;82.70;;;32.73;;
7021;SDS011;3552;42.664;23.406;2022-11-18T09:55:12;78.87;;;33.10;;
7021;SDS011;3552;42.664;23.406;2022-11-18T09:57:44;84.07;;;35.73;;
7021;SDS011;3552;42.664;23.406;2022-11-18T10:00:14;103.23;;;34.87;;
7021;SDS011;3552;42.664;23.406;2022-11-18T10:02:50;110.90;;;37.60;;
7021;SDS011;3552;42.664;23.406;2022-11-18T10:05:23;116.77;;;37.93;;
7021;SDS011;3552;42.664;23.406;2022-11-18T10:07:55;106.47;;;39.17;;
7021;SDS011;3552;42.664;23.406;2022-11-18T10:10:29;132.37;;;39.40;;
7021;SDS011;3552;42.664;23.406;2022-11-18T10:13:08;121.10;;;42.10;;
7021;SDS011;3552;42.664;23.406;2022-11-18T10:15:43;104.27;;;40.13;;
7021;SDS011;3552;42.664;23.406;2022-11-18T10:18:21;111.07;;;39.50;;
7021;SDS011;3552;42.664;23.406;2022-11-18T10:20:58;101.00;;;39.07;;
7021;SDS011;3552;42.664;23.406;2022-11-18T10:23:32;98.83;;;38.07;;
7021;SDS011;3552;42.664;23.406;2022-11-18T10:26:07;105.00;;;39.70;;
7021;SDS011;3552;42.664;23.406;2022-11-18T10:28:34;94.80;;;37.17;;
7021;SDS011;3552;42.664;23.406;2022-11-18T10:31:04;84.83;;;36.00;;
7021;SDS011;3552;42.664;23.406;2022-11-18T10:33:41;89.13;;;37.47;;
7021;SDS011;3552;42.664;23.406;2022-11-18T10:36:09;85.27;;;35.33;;
7021;SDS011;3552;42.664;23.406;2022-11-18T10:38:44;80.97;;;34.53;;
7021;SDS011;3552;42.664;23.406;2022-11-18T10:41:13;78.83;;;36.20;;
7021;SDS011;3552;42.664;23.406;2022-11-18T10:43:45;87.33;;;35.40;;
7021;SDS011;3552;42.664;23.406;2022-11-18T10:46:16;79.70;;;34.77;;
7021;SDS011;3552;42.664;23.406;2022-11-18T10:48:50;77.53;;;32.20;;
7021;SDS011;3552;42.664;23.406;2022-11-18T10:51:38;70.20;;;31.47;;
7021;SDS011;3552;42.664;23.406;2022-11-18T10:54:07;66.20;;;28.23;;
7021;SDS011;3552;42.664;23.406;2022-11-18T10:56:43;58.03;;;27.93;;
7021;SDS011;3552;42.664;23.406;2022-11-18T10:59:13;49.40;;;24.87;;
7021;SDS011;3552;42.664;23.406;2022-11-18T11:01:58;50.70;;;24.10;;
7021;SDS011;3552;42.664;23.406;2022-11-18T11:04:28;50.10;;;26.40;;
7021;SDS011;3552;42.664;23.406;2022-11-18T11:06:56;53.07;;;26.40;;
7021;SDS011;3552;42.664;23.406;2022-11-18T11:09:25;59.23;;;28.93;;
7021;SDS011;3552;42.664;23.406;2022-11-18T11:11:59;74.90;;;28.57;;
7021;SDS011;3552;42.664;23.406;2022-11-18T11:14:33;52.47;;;28.57;;
7021;SDS011;3552;42.664;23.406;2022-11-18T11:17:05;52.83;;;28.80;;
7021;SDS011;3552;42.664;23.406;2022-11-18T11:19:44;60.17;;;27.73;;
7021;SDS011;3552;42.664;23.406;2022-11-18T11:22:16;56.33;;;26.37;;
7021;SDS011;3552;42.664;23.406;2022-11-18T11:24:44;54.90;;;27.63;;
7021;SDS011;3552;42.664;23.406;2022-11-18T11:27:16;57.53;;;27.23;;
7021;SDS011;3552;42.664;23.406;2022-11-18T11:30:12;59.07;;;25.90;;
7021;SDS011;3552;42.664;23.406;2022-11-18T11:32:57;38.20;;;20.03;;
7021;SDS011;3552;42.664;23.406;2022-11-18T11:35:40;43.27;;;20.47;;
7021;SDS011;3552;42.664;23.406;2022-11-18T11:38:14;40.50;;;20.33;;
7021;SDS011;3552;42.664;23.406;2022-11-18T11:40:51;33.83;;;19.70;;
7021;SDS011;3552;42.664;23.406;2022-11-18T11:43:31;41.57;;;20.10;;
7021;SDS011;3552;42.664;23.406;2022-11-18T11:46:13;37.77;;;19.10;;
7021;SDS011;3552;42.664;23.406;2022-11-18T11:48:54;41.03;;;21.40;;
7021;SDS011;3552;42.664;23.406;2022-11-18T11:51:32;37.33;;;21.20;;
7021;SDS011;3552;42.664;23.406;2022-11-18T11:54:07;46.50;;;24.10;;
7021;SDS011;3552;42.664;23.406;2022-11-18T11:56:47;38.83;;;21.33;;
7021;SDS011;3552;42.664;23.406;2022-11-18T11:59:18;37.37;;;21.60;;
7021;SDS011;3552;42.664;23.406;2022-11-18T12:01:56;45.47;;;22.27;;
7021;SDS011;3552;42.664;23.406;2022-11-18T12:04:33;52.77;;;25.50;;
7021;SDS011;3552;42.664;23.406;2022-11-18T12:07:11;45.03;;;24.17;;
7021;SDS011;3552;42.664;23.406;2022-11-18T12:09:53;41.53;;;23.30;;
7021;SDS011;3552;42.664;23.406;2022-11-18T12:12:51;42.10;;;22.73;;
7021;SDS011;3552;42.664;23.406;2022-11-18T12:15:36;42.83;;;23.37;;
7021;SDS011;3552;42.664;23.406;2022-11-18T12:18:11;50.93;;;23.80;;
7021;SDS011;3552;42.664;23.406;2022-11-18T12:20:46;46.90;;;24.17;;
7021;SDS011;3552;42.664;23.406;2022-11-18T12:23:17;44.27;;;23.00;;
7021;SDS011;3552;42.664;23.406;2022-11-18T12:25:53;44.70;;;23.97;;
7021;SDS011;3552;42.664;23.406;2022-11-18T12:28:22;44.70;;;24.10;;
7021;SDS011;3552;42.664;23.406;2022-11-18T12:33:58;50.37;;;25.17;;
7021;SDS011;3552;42.664;23.406;2022-11-18T12:36:27;49.43;;;28.00;;
7021;SDS011;3552;42.664;23.406;2022-11-18T12:38:58;52.13;;;28.70;;
7021;SDS011;3552;42.664;23.406;2022-11-18T12:41:51;53.03;;;29.10;;
7021;SDS011;3552;42.664;23.406;2022-11-18T12:44:37;51.57;;;27.10;;
7021;SDS011;3552;42.664;23.406;2022-11-18T12:47:05;68.07;;;27.23;;
7021;SDS011;3552;42.664;23.406;2022-11-18T12:52:49;43.50;;;23.23;;
7021;SDS011;3552;42.664;23.406;2022-11-18T12:55:23;48.33;;;26.53;;
7021;SDS011;3552;42.664;23.406;2022-11-18T12:57:57;46.80;;;27.10;;
7021;SDS011;3552;42.664;23.406;2022-11-18T13:00:32;49.33;;;27.03;;
7021;SDS011;3552;42.664;23.406;2022-11-18T13:03:20;30.50;;;16.93;;
7021;SDS011;3552;42.664;23.406;2022-11-18T13:05:57;41.17;;;19.03;;
7021;SDS011;3552;42.664;23.406;2022-11-18T13:08:27;33.30;;;14.37;;
7021;SDS011;3552;42.664;23.406;2022-11-18T13:10:58;36.10;;;16.57;;
7021;SDS011;3552;42.664;23.406;2022-11-18T13:13:50;35.70;;;15.90;;
7021;SDS011;3552;42.664;23.406;2022-11-18T13:16:39;56.33;;;18.83;;
7021;SDS011;3552;42.664;23.406;2022-11-18T13:19:37;29.83;;;11.97;;
7021;SDS011;3552;42.664;23.406;2022-11-18T13:22:12;31.80;;;12.17;;
7021;SDS011;3552;42.664;23.406;2022-11-18T13:25:00;29.97;;;11.53;;
7021;SDS011;3552;42.664;23.406;2022-11-18T13:27:41;31.17;;;13.73;;
7021;SDS011;3552;42.664;23.406;2022-11-18T13:30:14;8.50;;;5.03;;
7021;SDS011;3552;42.664;23.406;2022-11-18T13:32:42;14.20;;;3.90;;
7021;SDS011;3552;42.664;23.406;2022-11-18T13:35:11;6.60;;;2.30;;
7021;SDS011;3552;42.664;23.406;2022-11-18T13:37:47;12.53;;;2.10;;
7021;SDS011;3552;42.664;23.406;2022-11-18T13:40:17;6.63;;;1.90;;
7021;SDS011;3552;42.664;23.406;2022-11-18T13:42:48;2.03;;;1.50;;
7021;SDS011;3552;42.664;23.406;2022-11-18T13:45:15;4.20;;;1.60;;
7021;SDS011;3552;42.664;23.406;2022-11-18T13:47:44;2.70;;;1.30;;
7021;SDS011;3552;42.664;23.406;2022-11-18T13:50:15;6.93;;;1.60;;
7021;SDS011;3552;42.664;23.406;2022-11-18T13:52:47;2.40;;;1.40;;
7021;SDS011;3552;42.664;23.406;2022-11-18T13:55:21;2.37;;;2.00;;
7021;SDS011;3552;42.664;23.406;2022-11-18T13:57:54;3.77;;;1.73;;
7021;SDS011;3552;42.664;23.406;2022-11-18T14:00:28;4.40;;;1.70;;
7021;SDS011;3552;42.664;23.406;2022-11-18T14:02:58;3.43;;;1.73;;
7021;SDS011;3552;42.664;23.406;2022-11-18T14:05:29;5.07;;;1.63;;
7021;SDS011;3552;42.664;23.406;2022-11-18T14:07:59;1.83;;;1.50;;
7021;SDS011;3552;42.664;23.406;2022-11-18T14:10:29;5.03;;;1.73;;
7021;SDS011;3552;42.664;23.406;2022-11-18T14:13:16;5.27;;;1.53;;
7021;SDS011;3552;42.664;23.406;2022-11-18T14:15:47;2.97;;;1.23;;
7021;SDS011;3552;42.664;23.406;2022-11-18T14:18:18;2.87;;;1.37;;
7021;SDS011;3552;42.664;23.406;2022-11-18T14:20:49;3.83;;;2.30;;
7021;SDS011;3552;42.664;23.406;2022-11-18T14:23:17;5.20;;;2.73;;
7021;SDS011;3552;42.664;23.406;2022-11-18T14:25:48;3.00;;;1.90;;
7021;SDS011;3552;42.664;23.406;2022-11-18T14:28:20;9.47;;;2.50;;
7021;SDS011;3552;42.664;23.406;2022-11-18T14:30:54;6.73;;;1.70;;
7021;SDS011;3552;42.664;23.406;2022-11-18T14:33:24;10.70;;;1.53;;
7021;SDS011;3552;42.664;23.406;2022-11-18T14:35:53;2.97;;;1.57;;
7021;SDS011;3552;42.664;23.406;2022-11-18T14:38:23;5.00;;;1.63;;
7021;SDS011;3552;42.664;23.406;2022-11-18T14:40:56;3.67;;;1.50;;
7021;SDS011;3552;42.664;23.406;2022-11-18T14:43:25;3.47;;;1.53;;
7021;SDS011;3552;42.664;23.406;2022-11-18T14:45:53;6.50;;;1.50;;
7021;SDS011;3552;42.664;23.406;2022-11-18T14:48:24;4.37;;;1.40;;
7021;SDS011;3552;42.664;23.406;2022-11-18T14:50:55;4.20;;;1.57;;
7021;SDS011;3552;42.664;23.406;2022-11-18T14:53:22;1.93;;;1.23;;
7021;SDS011;3552;42.664;23.406;2022-11-18T14:55:50;5.13;;;1.30;;
7021;SDS011;3552;42.664;23.406;2022-11-18T14:58:19;10.00;;;5.03;;
7021;SDS011;3552;42.664;23.406;2022-11-18T15:00:48;3.83;;;2.60;;
7021;SDS011;3552;42.664;23.406;2022-11-18T15:03:16;6.07;;;1.80;;